Time;durP1;ratioP1;P1;durP2;ratioP2;P2;SDS_P1;SDS_P2;PMS_P1;PMS_P2;Temp;Humidity;BMP_temperature;BMP_pressure;BME280_temperature;BME280_humidity;BME280_pressure;Samples;Min_cycle;Max_cycle;Signal;HPM_P1;HPM_P2
2021/12/30 00:02:10;;;;;;;;;0.00;0.00;12.60;99.90;;;;;;5056828;28;11389;-55
2021/12/30 00:04:41;;;;;;;;;0.00;0.00;12.60;99.90;;;;;;5058170;28;11467;-62
2021/12/30 00:07:11;;;;;;;;;0.00;0.00;12.60;99.90;;;;;;5058735;28;12092;-61
2021/12/30 00:09:42;;;;;;;;;0.00;0.00;12.60;99.90;;;;;;5056130;28;11427;-61
2021/12/30 00:12:13;;;;;;;;;0.00;0.00;12.60;99.90;;;;;;5056919;28;11377;-61
2021/12/30 00:14:47;;;;;;;;;0.00;0.00;12.60;99.90;;;;;;5058380;28;12366;-58
2021/12/30 00:17:16;;;;;;;;;0.00;0.00;12.50;99.90;;;;;;5056257;28;11419;-61
2021/12/30 00:19:47;;;;;;;;;0.00;0.00;12.50;99.90;;;;;;5059224;28;11419;-57
2021/12/30 00:22:19;;;;;;;;;0.00;0.00;12.50;99.90;;;;;;5055449;28;11389;-56
2021/12/30 00:24:50;;;;;;;;;0.00;0.00;12.50;99.90;;;;;;5050574;28;11407;-57
2021/12/30 00:27:21;;;;;;;;;0.00;0.00;12.50;99.90;;;;;;5057025;28;11396;-62
2021/12/30 00:29:53;;;;;;;;;0.00;0.00;12.50;99.90;;;;;;5060379;28;11383;-62
2021/12/30 00:32:24;;;;;;;;;0.00;0.00;12.50;99.90;;;;;;5055986;28;11395;-62
2021/12/30 00:34:54;;;;;;;;;0.00;0.00;12.40;99.90;;;;;;5057253;28;11387;-54
2021/12/30 00:37:27;;;;;;;;;0.00;0.00;12.40;99.90;;;;;;5056232;28;11409;-58
2021/12/30 00:39:57;;;;;;;;;0.00;0.00;12.40;99.90;;;;;;5035752;28;11446;-59
2021/12/30 00:42:29;;;;;;;;;0.00;0.00;12.40;99.90;;;;;;5052620;28;11509;-58
2021/12/30 00:44:59;;;;;;;;;1.00;1.00;12.40;99.90;;;;;;5058159;28;11397;-59
2021/12/30 00:47:30;;;;;;;;;0.00;0.00;12.40;99.90;;;;;;5056684;28;11439;-57
2021/12/30 00:50:00;;;;;;;;;0.25;0.25;12.40;99.90;;;;;;5045254;28;11450;-58
2021/12/30 00:52:32;;;;;;;;;0.00;0.00;12.40;99.90;;;;;;5028564;28;11431;-58
2021/12/30 00:55:06;;;;;;;;;0.00;0.00;12.40;99.90;;;;;;5040357;28;11477;-58
2021/12/30 00:57:37;;;;;;;;;0.00;0.00;12.40;99.90;;;;;;5045655;28;11442;-57
2021/12/30 01:00:12;;;;;;;;;0.00;0.00;12.30;99.90;;;;;;5041280;28;11457;-57
2021/12/30 01:02:42;;;;;;;;;1.00;1.00;12.30;99.90;;;;;;5039714;28;11431;-56
2021/12/30 01:05:14;;;;;;;;;0.00;0.00;12.30;99.90;;;;;;5032068;28;11661;-58
2021/12/30 01:07:45;;;;;;;;;1.00;1.00;12.30;99.90;;;;;;5037976;28;12131;-57
2021/12/30 01:10:20;;;;;;;;;0.00;0.00;12.30;99.90;;;;;;5035631;28;12738;-58
2021/12/30 01:12:52;;;;;;;;;1.00;1.00;12.30;99.90;;;;;;5020468;28;11394;-59
2021/12/30 01:15:35;;;;;;;;;1.00;1.00;12.30;99.90;;;;;;5035524;28;11434;-57
2021/12/30 01:18:25;;;;;;;;;1.50;1.50;12.30;99.90;;;;;;5038280;28;11413;-58
2021/12/30 01:20:57;;;;;;;;;0.00;0.00;12.30;99.90;;;;;;5023811;28;11411;-57
2021/12/30 01:23:31;;;;;;;;;1.75;1.75;12.30;99.90;;;;;;5039050;28;11427;-58
2021/12/30 01:26:02;;;;;;;;;2.00;2.00;12.30;99.90;;;;;;5035049;28;11423;-58
2021/12/30 01:28:32;;;;;;;;;0.00;0.00;12.20;99.90;;;;;;5034023;28;12168;-58
2021/12/30 01:31:05;;;;;;;;;0.00;0.00;12.20;99.90;;;;;;5041184;28;11540;-57
2021/12/30 01:33:38;;;;;;;;;0.25;0.25;12.20;99.90;;;;;;5034540;28;11431;-58
2021/12/30 01:36:11;;;;;;;;;0.75;0.75;12.20;99.90;;;;;;5037532;28;12406;-58
2021/12/30 01:38:42;;;;;;;;;1.00;1.00;12.20;99.90;;;;;;5039865;28;11424;-58
2021/12/30 01:41:14;;;;;;;;;1.00;1.00;12.20;99.90;;;;;;5037493;28;11413;-59
2021/12/30 01:43:46;;;;;;;;;1.00;1.00;12.20;99.90;;;;;;5037918;28;11475;-59
2021/12/30 01:46:17;;;;;;;;;0.00;0.00;12.10;99.90;;;;;;5026186;28;11434;-60
2021/12/30 01:48:49;;;;;;;;;0.75;0.75;12.20;99.90;;;;;;5042194;28;11408;-59
2021/12/30 01:51:20;;;;;;;;;0.00;0.00;12.10;99.90;;;;;;5040627;28;11483;-59
2021/12/30 01:53:51;;;;;;;;;0.25;0.25;12.20;99.90;;;;;;5055765;28;11418;-59
2021/12/30 01:56:23;;;;;;;;;0.75;0.75;12.10;99.90;;;;;;5052385;28;11405;-59
2021/12/30 01:58:55;;;;;;;;;0.00;0.00;12.10;99.90;;;;;;5051473;28;11525;-59
2021/12/30 02:01:27;;;;;;;;;0.50;0.50;12.10;99.90;;;;;;5055938;28;11388;-59
2021/12/30 02:03:59;;;;;;;;;0.00;0.00;12.10;99.90;;;;;;5058674;28;11485;-60
2021/12/30 02:06:30;;;;;;;;;0.00;0.00;12.10;99.90;;;;;;5053406;28;11422;-59
2021/12/30 02:09:01;;;;;;;;;0.00;0.00;12.00;99.90;;;;;;5058149;28;11479;-59
2021/12/30 02:11:32;;;;;;;;;0.00;0.00;12.10;99.90;;;;;;5053284;28;11481;-60
2021/12/30 02:14:06;;;;;;;;;0.00;0.00;12.00;99.90;;;;;;5056290;28;11486;-59
2021/12/30 02:16:37;;;;;;;;;0.25;0.25;12.10;99.90;;;;;;5059084;28;12346;-59
2021/12/30 02:19:12;;;;;;;;;0.75;0.75;12.00;99.90;;;;;;5058671;28;11442;-59
2021/12/30 02:21:42;;;;;;;;;0.00;0.00;12.00;99.90;;;;;;5060764;28;11460;-60
2021/12/30 02:24:16;;;;;;;;;0.00;0.00;12.00;99.90;;;;;;5039029;28;11516;-60
2021/12/30 02:26:45;;;;;;;;;0.00;0.00;12.00;99.90;;;;;;5052875;28;11446;-59
2021/12/30 02:29:16;;;;;;;;;0.00;0.00;12.00;99.90;;;;;;5042493;28;11461;-59
2021/12/30 02:31:48;;;;;;;;;1.00;1.00;12.00;99.90;;;;;;5041465;28;11441;-59
2021/12/30 02:34:19;;;;;;;;;2.00;2.00;11.90;99.90;;;;;;5051506;28;11475;-59
2021/12/30 02:36:50;;;;;;;;;6.50;6.50;11.90;99.90;;;;;;5060851;28;11453;-58
2021/12/30 02:39:22;;;;;;;;;3.00;3.00;11.90;99.90;;;;;;5055585;28;11479;-59
2021/12/30 02:41:54;;;;;;;;;3.25;3.25;11.90;99.90;;;;;;5059512;28;12050;-59
2021/12/30 02:44:25;;;;;;;;;1.50;1.50;11.90;99.90;;;;;;5036873;28;11474;-59
2021/12/30 02:46:57;;;;;;;;;1.25;1.25;11.90;99.90;;;;;;5059515;28;11485;-59
2021/12/30 02:49:29;;;;;;;;;2.00;2.00;11.90;99.90;;;;;;5030284;28;11494;-59
2021/12/30 02:52:01;;;;;;;;;1.50;1.50;11.90;99.90;;;;;;5039482;28;11471;-59
2021/12/30 02:54:31;;;;;;;;;2.00;2.00;11.90;99.90;;;;;;5031949;28;11471;-58
2021/12/30 02:57:02;;;;;;;;;2.00;2.00;11.80;99.90;;;;;;5026451;28;11487;-59
2021/12/30 02:59:35;;;;;;;;;3.00;3.00;11.90;99.90;;;;;;5032716;28;11539;-59
2021/12/30 03:02:05;;;;;;;;;4.25;4.25;11.80;99.90;;;;;;5017439;28;11474;-59
2021/12/30 03:04:37;;;;;;;;;3.75;3.75;11.80;99.90;;;;;;5035914;28;11544;-59
2021/12/30 03:07:08;;;;;;;;;7.25;7.25;11.80;99.90;;;;;;5037266;28;10957;-58
2021/12/30 03:09:39;;;;;;;;;5.25;5.25;11.80;99.90;;;;;;5023742;28;11511;-59
2021/12/30 03:12:10;;;;;;;;;4.75;4.75;11.80;99.90;;;;;;5033667;28;11537;-58
2021/12/30 03:14:43;;;;;;;;;5.50;5.50;11.70;99.90;;;;;;5018058;28;11499;-59
2021/12/30 03:17:14;;;;;;;;;5.00;5.00;11.70;99.90;;;;;;5037917;28;11527;-60
2021/12/30 03:19:47;;;;;;;;;7.00;7.00;11.70;99.90;;;;;;5038115;28;11507;-59
2021/12/30 03:22:17;;;;;;;;;6.50;6.50;11.70;99.90;;;;;;5022055;28;12227;-59
2021/12/30 03:24:50;;;;;;;;;9.75;7.75;11.70;99.90;;;;;;5028855;28;11509;-59
2021/12/30 03:27:21;;;;;;;;;7.75;7.75;11.60;99.90;;;;;;5033192;28;11488;-58
2021/12/30 03:29:50;;;;;;;;;6.75;6.75;11.60;99.90;;;;;;5033166;28;11489;-58
2021/12/30 03:32:21;;;;;;;;;6.25;6.25;11.60;99.90;;;;;;5034408;28;11510;-60
2021/12/30 03:34:53;;;;;;;;;5.75;5.75;11.60;99.90;;;;;;5036315;28;12252;-60
2021/12/30 03:37:23;;;;;;;;;7.25;7.25;11.60;99.90;;;;;;5018410;28;11464;-59
2021/12/30 03:39:54;;;;;;;;;7.00;7.00;11.60;99.90;;;;;;5028705;28;13096;-60
2021/12/30 03:42:27;;;;;;;;;7.25;7.25;11.60;99.90;;;;;;5039752;28;11529;-59
2021/12/30 03:45:02;;;;;;;;;7.00;7.00;11.50;99.90;;;;;;5032050;28;12192;-59
2021/12/30 03:47:32;;;;;;;;;5.00;5.00;11.50;99.90;;;;;;5035602;28;11526;-57
2021/12/30 03:50:05;;;;;;;;;4.25;4.25;11.60;99.90;;;;;;5034588;28;11482;-58
2021/12/30 03:52:35;;;;;;;;;2.25;2.25;11.50;99.90;;;;;;5038331;28;11504;-59
2021/12/30 03:55:07;;;;;;;;;3.75;3.75;11.50;99.90;;;;;;5018592;28;11520;-58
2021/12/30 03:57:38;;;;;;;;;2.50;2.50;11.50;99.90;;;;;;5031100;28;11503;-57
2021/12/30 04:00:11;;;;;;;;;2.25;2.25;11.50;99.90;;;;;;5036308;28;12257;-59
2021/12/30 04:02:42;;;;;;;;;3.00;3.00;11.50;99.90;;;;;;5019900;28;11449;-58
2021/12/30 04:05:12;;;;;;;;;3.00;3.00;11.50;99.90;;;;;;5015110;28;11500;-58
2021/12/30 04:07:43;;;;;;;;;3.00;3.00;11.50;99.90;;;;;;5035996;28;11478;-61
2021/12/30 04:10:14;;;;;;;;;3.00;3.00;11.50;99.90;;;;;;5034422;28;12331;-58
2021/12/30 04:12:45;;;;;;;;;4.75;4.75;11.50;99.90;;;;;;5033154;28;11466;-60
2021/12/30 04:15:18;;;;;;;;;4.25;4.25;11.40;99.90;;;;;;5041174;28;11484;-60
2021/12/30 04:17:49;;;;;;;;;2.00;2.00;11.40;99.90;;;;;;5038012;28;11465;-58
2021/12/30 04:20:20;;;;;;;;;3.75;3.75;11.40;99.90;;;;;;5030673;28;11467;-58
2021/12/30 04:22:52;;;;;;;;;1.75;1.75;11.40;99.90;;;;;;5037350;28;11507;-58
2021/12/30 04:25:24;;;;;;;;;3.25;3.25;11.40;99.90;;;;;;5030002;28;11452;-60
2021/12/30 04:27:55;;;;;;;;;0.00;0.00;11.40;99.90;;;;;;5033815;28;11489;-59
2021/12/30 04:30:26;;;;;;;;;4.00;4.00;11.40;99.90;;;;;;5036062;28;11473;-58
2021/12/30 04:32:56;;;;;;;;;2.50;2.50;11.40;99.90;;;;;;5030717;28;11462;-59
2021/12/30 04:35:34;;;;;;;;;3.00;3.00;11.40;99.90;;;;;;5036061;28;11481;-59
2021/12/30 04:38:04;;;;;;;;;4.50;4.50;11.30;99.90;;;;;;5031809;28;11497;-58
2021/12/30 04:40:36;;;;;;;;;2.50;2.50;11.40;99.90;;;;;;5027399;28;11465;-58
2021/12/30 04:43:09;;;;;;;;;3.00;3.00;11.30;99.90;;;;;;5034485;28;12285;-58
2021/12/30 04:45:40;;;;;;;;;4.00;4.00;11.30;99.90;;;;;;5035630;28;11565;-59
2021/12/30 04:48:11;;;;;;;;;2.75;2.75;11.30;99.90;;;;;;5037478;28;11461;-59
2021/12/30 04:50:45;;;;;;;;;3.75;3.75;11.20;99.90;;;;;;5039365;28;11530;-59
2021/12/30 04:53:18;;;;;;;;;2.00;2.00;11.20;99.90;;;;;;5041108;28;11514;-60
2021/12/30 04:55:49;;;;;;;;;3.00;3.00;11.10;99.90;;;;;;5029251;28;11461;-61
2021/12/30 04:58:21;;;;;;;;;3.00;2.25;11.20;99.90;;;;;;5037599;28;11446;-59
2021/12/30 05:00:52;;;;;;;;;2.00;2.00;11.20;99.90;;;;;;5030621;28;11463;-59
2021/12/30 05:03:28;;;;;;;;;3.00;3.00;11.20;99.90;;;;;;5041299;28;11486;-59
2021/12/30 05:05:59;;;;;;;;;4.50;4.50;11.20;99.90;;;;;;5038874;28;11478;-60
2021/12/30 05:08:29;;;;;;;;;4.50;4.50;11.20;99.90;;;;;;5039057;28;11493;-59
2021/12/30 05:11:01;;;;;;;;;3.00;3.00;11.10;99.90;;;;;;5018004;28;11528;-59
2021/12/30 05:13:34;;;;;;;;;3.00;3.00;11.10;99.90;;;;;;5040904;28;11464;-60
2021/12/30 05:16:06;;;;;;;;;6.50;6.50;11.10;99.90;;;;;;5037884;28;11486;-59
2021/12/30 05:18:37;;;;;;;;;6.50;5.75;11.10;99.90;;;;;;5021381;28;11501;-60
2021/12/30 05:21:07;;;;;;;;;7.00;7.00;11.10;99.90;;;;;;5033254;28;11466;-59
2021/12/30 05:23:38;;;;;;;;;5.75;5.75;11.10;99.90;;;;;;5026528;28;11629;-59
2021/12/30 05:26:10;;;;;;;;;3.50;3.50;11.10;99.90;;;;;;5036002;28;11528;-59
2021/12/30 05:28:41;;;;;;;;;5.50;5.50;11.10;99.90;;;;;;5041049;28;11454;-58
2021/12/30 05:31:13;;;;;;;;;5.75;5.75;11.00;99.90;;;;;;5041794;28;11527;-59
2021/12/30 05:33:45;;;;;;;;;10.00;10.00;11.00;99.90;;;;;;5039537;28;11471;-59
2021/12/30 05:36:15;;;;;;;;;8.00;8.00;10.90;99.90;;;;;;5036138;28;12233;-58
2021/12/30 05:38:47;;;;;;;;;6.75;6.75;10.90;99.90;;;;;;5039554;28;11520;-60
2021/12/30 05:41:22;;;;;;;;;5.00;5.00;10.90;99.90;;;;;;5035799;28;11516;-60
2021/12/30 05:43:54;;;;;;;;;10.75;10.75;10.90;99.90;;;;;;5039093;28;11478;-60
2021/12/30 05:46:27;;;;;;;;;11.00;9.50;10.90;99.90;;;;;;5035410;28;12571;-60
2021/12/30 05:48:58;;;;;;;;;6.75;5.75;10.90;99.90;;;;;;5045273;28;11006;-59
2021/12/30 05:51:30;;;;;;;;;11.00;11.00;10.90;99.90;;;;;;5056968;28;11508;-59
2021/12/30 05:54:00;;;;;;;;;12.25;12.25;10.80;99.90;;;;;;5058564;28;11500;-59
2021/12/30 05:56:30;;;;;;;;;10.25;10.25;10.80;99.90;;;;;;5039867;28;11521;-58
2021/12/30 05:59:00;;;;;;;;;9.75;8.00;10.70;99.90;;;;;;5017585;28;12292;-60
2021/12/30 06:01:31;;;;;;;;;11.50;11.00;10.70;99.90;;;;;;5057767;28;11482;-58
2021/12/30 06:04:07;;;;;;;;;11.25;9.50;10.70;99.90;;;;;;5056429;28;11513;-58
2021/12/30 06:06:36;;;;;;;;;8.75;8.75;10.70;99.90;;;;;;5057102;28;12109;-59
2021/12/30 06:09:07;;;;;;;;;7.00;7.00;10.60;99.90;;;;;;5057518;28;11522;-59
2021/12/30 06:11:39;;;;;;;;;6.75;6.75;10.70;99.90;;;;;;5052918;28;11469;-59
2021/12/30 06:14:16;;;;;;;;;6.75;6.75;10.60;99.90;;;;;;5059192;28;10940;-59
2021/12/30 06:16:47;;;;;;;;;7.00;7.00;10.70;99.90;;;;;;5036822;28;12190;-59
2021/12/30 06:19:17;;;;;;;;;7.00;7.00;10.70;99.90;;;;;;5061798;28;12260;-61
2021/12/30 06:21:48;;;;;;;;;8.50;7.00;10.60;99.90;;;;;;5055470;28;11484;-58
2021/12/30 06:24:18;;;;;;;;;4.25;4.25;10.60;99.90;;;;;;5052667;28;11478;-59
2021/12/30 06:26:49;;;;;;;;;5.00;5.00;10.50;99.90;;;;;;5057071;28;11462;-59
2021/12/30 06:29:19;;;;;;;;;5.00;5.00;10.50;99.90;;;;;;5057645;28;11501;-59
2021/12/30 06:31:52;;;;;;;;;3.00;3.00;10.50;99.90;;;;;;5051970;28;11462;-59
2021/12/30 06:34:23;;;;;;;;;3.50;3.50;10.50;99.90;;;;;;5058666;28;11494;-60
2021/12/30 06:36:55;;;;;;;;;4.75;4.75;10.50;99.90;;;;;;5059561;28;11489;-59
2021/12/30 06:39:26;;;;;;;;;4.25;4.25;10.50;99.90;;;;;;5052591;28;12251;-59
2021/12/30 06:41:57;;;;;;;;;3.25;3.25;10.40;99.90;;;;;;5034369;28;11481;-59
2021/12/30 06:44:29;;;;;;;;;5.00;5.00;10.40;99.90;;;;;;5058858;28;11476;-60
2021/12/30 06:47:04;;;;;;;;;5.00;5.00;10.40;99.90;;;;;;5057573;28;11459;-59
2021/12/30 06:49:37;;;;;;;;;5.00;5.00;10.40;99.90;;;;;;5045012;28;12361;-58
2021/12/30 06:52:12;;;;;;;;;5.00;5.00;10.40;99.90;;;;;;5035035;28;11459;-60
2021/12/30 06:54:41;;;;;;;;;3.00;3.00;10.50;99.90;;;;;;5022089;28;11509;-59
2021/12/30 06:57:17;;;;;;;;;4.00;4.00;10.50;99.90;;;;;;5031014;28;11507;-58
2021/12/30 06:59:49;;;;;;;;;4.25;4.25;10.40;99.90;;;;;;5041364;28;12310;-59
2021/12/30 07:02:21;;;;;;;;;4.00;4.00;10.40;99.90;;;;;;5036520;28;11496;-59
2021/12/30 07:04:54;;;;;;;;;4.75;4.75;10.40;99.90;;;;;;5039748;28;11509;-59
2021/12/30 07:07:29;;;;;;;;;4.25;4.25;10.40;99.90;;;;;;5034411;28;11475;-60
2021/12/30 07:10:01;;;;;;;;;7.00;7.00;10.40;99.90;;;;;;5035434;28;11469;-59
2021/12/30 07:12:32;;;;;;;;;6.00;6.00;10.40;99.90;;;;;;5035324;28;11498;-60
2021/12/30 07:15:06;;;;;;;;;8.50;8.50;10.40;99.90;;;;;;5036812;28;11486;-60
2021/12/30 07:17:37;;;;;;;;;4.00;4.00;10.40;99.90;;;;;;5029944;28;11467;-60
2021/12/30 07:20:10;;;;;;;;;2.00;2.00;10.40;99.90;;;;;;5038256;28;11459;-59
2021/12/30 07:22:41;;;;;;;;;6.50;6.50;10.30;99.90;;;;;;5035654;28;11463;-60
2021/12/30 07:25:19;;;;;;;;;4.75;4.75;10.30;99.90;;;;;;5039243;28;11522;-60
2021/12/30 07:27:54;;;;;;;;;4.75;4.75;10.20;99.90;;;;;;5031422;28;11496;-59
2021/12/30 07:30:27;;;;;;;;;4.25;4.25;10.20;99.90;;;;;;5033881;28;11511;-60
2021/12/30 07:33:00;;;;;;;;;5.00;5.00;10.20;99.90;;;;;;5037778;28;11499;-59
2021/12/30 07:35:31;;;;;;;;;5.00;5.00;10.20;99.90;;;;;;5036280;28;11507;-59
2021/12/30 07:38:05;;;;;;;;;4.50;4.50;10.20;99.90;;;;;;5035961;28;11475;-60
2021/12/30 07:40:37;;;;;;;;;3.25;3.25;10.20;99.90;;;;;;5016371;28;11482;-59
2021/12/30 07:43:07;;;;;;;;;5.00;5.00;10.30;99.90;;;;;;5036049;28;11527;-60
2021/12/30 07:45:38;;;;;;;;;2.75;2.75;10.20;99.90;;;;;;5035483;28;11499;-59
2021/12/30 07:48:08;;;;;;;;;4.50;4.50;10.20;99.90;;;;;;5034030;28;10953;-58
2021/12/30 07:50:38;;;;;;;;;3.50;3.50;10.20;99.90;;;;;;5054708;28;11497;-59
2021/12/30 07:53:08;;;;;;;;;5.75;4.00;10.20;99.90;;;;;;5060097;28;11473;-59
2021/12/30 07:55:39;;;;;;;;;2.25;2.25;10.20;99.90;;;;;;5052767;28;11770;-60
2021/12/30 07:58:10;;;;;;;;;4.75;4.75;10.20;99.90;;;;;;5054863;28;11497;-59
2021/12/30 08:00:40;;;;;;;;;5.25;5.25;10.20;99.90;;;;;;5057599;28;11478;-59
2021/12/30 08:03:10;;;;;;;;;3.75;3.75;10.10;99.90;;;;;;5042919;28;11473;-60
2021/12/30 08:05:42;;;;;;;;;4.00;4.00;10.10;99.90;;;;;;5054807;28;11476;-60
2021/12/30 08:08:15;;;;;;;;;3.50;3.50;10.10;99.90;;;;;;5057986;28;11453;-60
2021/12/30 08:10:46;;;;;;;;;4.00;4.00;10.10;99.90;;;;;;5037164;28;11500;-59
2021/12/30 08:13:17;;;;;;;;;2.50;2.50;10.10;99.90;;;;;;5053762;28;12480;-58
2021/12/30 08:15:48;;;;;;;;;3.00;3.00;10.10;99.90;;;;;;5051303;28;11492;-59
2021/12/30 08:18:19;;;;;;;;;1.00;1.00;10.10;99.90;;;;;;5054317;28;11485;-59
2021/12/30 08:20:52;;;;;;;;;1.50;1.50;10.20;99.90;;;;;;5052323;28;11449;-58
2021/12/30 08:23:23;;;;;;;;;1.00;1.00;10.10;99.90;;;;;;5054454;28;12252;-59
2021/12/30 08:25:53;;;;;;;;;0.50;0.50;10.10;99.90;;;;;;5051781;28;11483;-45
2021/12/30 08:28:25;;;;;;;;;0.00;0.00;10.20;99.90;;;;;;5058734;28;11469;-47
2021/12/30 08:30:57;;;;;;;;;0.25;0.25;10.10;99.90;;;;;;5033115;28;11453;-47
2021/12/30 08:33:27;;;;;;;;;0.00;0.00;10.10;99.90;;;;;;5059744;28;11504;-46
2021/12/30 08:35:58;;;;;;;;;0.25;0.25;10.10;99.90;;;;;;5058608;28;11485;-49
2021/12/30 08:38:28;;;;;;;;;0.00;0.00;10.10;99.90;;;;;;5056851;28;11467;-47
2021/12/30 08:41:01;;;;;;;;;0.50;0.50;10.10;99.90;;;;;;5056050;28;11497;-44
2021/12/30 08:43:33;;;;;;;;;0.25;0.00;10.10;99.90;;;;;;5058589;28;11445;-44
2021/12/30 08:46:03;;;;;;;;;0.50;0.50;10.10;99.90;;;;;;5057800;28;11470;-46
2021/12/30 08:48:39;;;;;;;;;0.00;0.00;10.10;99.90;;;;;;5057489;28;11456;-47
2021/12/30 08:51:10;;;;;;;;;0.00;0.00;10.10;99.90;;;;;;5038007;28;11500;-51
2021/12/30 08:53:41;;;;;;;;;1.00;1.00;10.10;99.90;;;;;;5059057;28;11443;-48
2021/12/30 08:56:17;;;;;;;;;1.00;1.00;10.10;99.90;;;;;;5048176;28;12314;-48
2021/12/30 08:58:47;;;;;;;;;0.00;0.00;10.10;99.90;;;;;;5053642;28;11508;-46
2021/12/30 09:01:19;;;;;;;;;0.25;0.25;10.10;99.90;;;;;;5040055;28;11460;-46
2021/12/30 09:03:50;;;;;;;;;0.00;0.00;10.10;99.90;;;;;;5057266;28;12715;-48
2021/12/30 09:06:20;;;;;;;;;0.00;0.00;10.10;99.90;;;;;;5054135;28;11444;-52
2021/12/30 09:08:50;;;;;;;;;1.75;1.00;10.00;99.90;;;;;;5045829;28;12192;-49
2021/12/30 09:11:22;;;;;;;;;0.75;0.75;10.10;99.90;;;;;;5056493;28;11456;-45
2021/12/30 09:13:55;;;;;;;;;0.00;0.00;10.00;99.90;;;;;;5055941;28;12134;-45
2021/12/30 09:16:25;;;;;;;;;0.00;0.00;10.00;99.90;;;;;;5057352;28;11446;-43
2021/12/30 09:18:55;;;;;;;;;0.00;0.00;10.00;99.90;;;;;;5055505;28;11432;-48
2021/12/30 09:21:27;;;;;;;;;0.25;0.25;9.90;99.90;;;;;;5036532;28;11445;-47
2021/12/30 09:23:57;;;;;;;;;0.75;0.75;9.90;99.90;;;;;;5041436;28;12155;-44
2021/12/30 09:26:29;;;;;;;;;1.00;1.00;9.90;99.90;;;;;;5055627;28;11455;-48
2021/12/30 09:28:59;;;;;;;;;0.00;0.00;9.90;99.90;;;;;;5053017;28;11600;-46
2021/12/30 09:31:31;;;;;;;;;1.50;1.50;9.90;99.90;;;;;;5058093;28;12285;-45
2021/12/30 09:34:02;;;;;;;;;0.00;0.00;9.90;99.90;;;;;;5056073;28;11480;-47
2021/12/30 09:36:34;;;;;;;;;0.00;0.00;9.90;99.90;;;;;;5056782;28;11449;-47
2021/12/30 09:39:07;;;;;;;;;0.00;0.00;9.90;99.90;;;;;;5057932;28;12266;-50
2021/12/30 09:41:40;;;;;;;;;0.25;0.25;9.90;99.90;;;;;;5051223;28;11457;-50
2021/12/30 09:44:11;;;;;;;;;0.00;0.00;9.90;99.90;;;;;;5057763;28;12602;-46
2021/12/30 09:46:44;;;;;;;;;0.00;0.00;9.90;99.90;;;;;;5058027;28;11469;-54
2021/12/30 09:49:18;;;;;;;;;0.25;0.25;9.90;99.90;;;;;;5044982;28;11490;-48
2021/12/30 09:51:51;;;;;;;;;0.00;0.00;9.90;99.90;;;;;;5037888;28;11479;-45
2021/12/30 09:54:24;;;;;;;;;0.50;0.50;9.90;99.90;;;;;;5036675;28;11467;-45
2021/12/30 09:56:55;;;;;;;;;1.00;1.00;9.90;99.90;;;;;;5036303;28;10955;-46
2021/12/30 09:59:29;;;;;;;;;0.00;0.00;9.80;99.90;;;;;;5038007;28;11459;-43
2021/12/30 10:02:02;;;;;;;;;0.75;0.75;9.80;99.90;;;;;;5034049;28;11490;-44
2021/12/30 10:04:36;;;;;;;;;0.00;0.00;9.80;99.90;;;;;;5035856;28;11484;-46
2021/12/30 10:07:20;;;;;;;;;0.00;0.00;9.80;99.90;;;;;;5035802;28;11506;-47
2021/12/30 10:09:52;;;;;;;;;1.00;1.00;9.80;99.90;;;;;;5038357;28;11488;-47
2021/12/30 10:12:39;;;;;;;;;1.00;1.00;9.80;99.90;;;;;;5027623;28;11613;-50
2021/12/30 10:15:09;;;;;;;;;0.00;0.00;9.80;99.90;;;;;;5039326;28;11473;-50
2021/12/30 10:17:39;;;;;;;;;0.00;0.00;9.80;99.90;;;;;;5030421;28;12931;-45
2021/12/30 10:20:29;;;;;;;;;0.00;0.00;9.70;99.90;;;;;;5022288;28;11530;-46
2021/12/30 10:23:20;;;;;;;;;1.00;1.00;9.70;99.90;;;;;;5035078;28;12329;-49
2021/12/30 10:25:58;;;;;;;;;1.75;1.75;9.70;99.90;;;;;;5035331;28;11475;-48
2021/12/30 10:28:33;;;;;;;;;2.00;2.00;9.70;99.90;;;;;;5039230;28;11455;-46
2021/12/30 10:31:14;;;;;;;;;1.00;1.00;9.70;99.90;;;;;;5035446;28;11486;-51
2021/12/30 10:34:05;;;;;;;;;1.00;1.00;9.70;99.90;;;;;;5039977;28;11481;-46
2021/12/30 10:36:40;;;;;;;;;1.00;1.00;9.60;99.90;;;;;;5033998;28;11496;-46
2021/12/30 10:39:29;;;;;;;;;1.00;1.00;9.60;99.90;;;;;;5034991;28;11514;-45
2021/12/30 10:42:10;;;;;;;;;0.00;0.00;9.60;99.90;;;;;;5038511;28;11466;-49
2021/12/30 10:44:55;;;;;;;;;1.50;1.50;9.60;99.90;;;;;;5036190;28;11514;-50
2021/12/30 10:47:30;;;;;;;;;1.00;1.00;9.60;99.90;;;;;;5032341;28;11491;-48
2021/12/30 10:50:09;;;;;;;;;0.00;0.00;9.50;99.90;;;;;;5054824;28;11509;-45
2021/12/30 10:52:56;;;;;;;;;2.00;2.00;9.50;99.90;;;;;;5054182;28;11518;-47
2021/12/30 10:55:26;;;;;;;;;2.00;2.00;9.60;99.90;;;;;;5051689;28;11592;-47
2021/12/30 10:57:59;;;;;;;;;1.25;1.25;9.60;99.90;;;;;;5056726;28;11528;-46
2021/12/30 11:00:32;;;;;;;;;1.25;1.25;9.50;99.90;;;;;;5037813;28;11547;-47
2021/12/30 11:03:20;;;;;;;;;1.25;1.25;9.50;99.90;;;;;;5056766;28;11539;-45
2021/12/30 11:06:12;;;;;;;;;0.25;0.25;9.50;99.90;;;;;;5054350;28;11490;-49
2021/12/30 11:08:43;;;;;;;;;2.00;2.00;9.50;99.90;;;;;;5057217;28;11457;-48
2021/12/30 11:11:29;;;;;;;;;1.00;1.00;9.50;99.90;;;;;;5052055;28;11471;-47
2021/12/30 11:14:15;;;;;;;;;2.00;2.00;9.50;99.90;;;;;;5040671;28;11494;-46
2021/12/30 11:16:54;;;;;;;;;1.25;1.25;9.50;99.90;;;;;;5056291;28;11474;-49
2021/12/30 11:19:23;;;;;;;;;1.00;1.00;9.40;99.90;;;;;;5056979;28;12248;-45
2021/12/30 11:21:58;;;;;;;;;1.00;1.00;9.40;99.90;;;;;;5041426;28;11492;-47
2021/12/30 11:24:31;;;;;;;;;2.00;2.00;9.40;99.90;;;;;;5055445;28;11558;-46
2021/12/30 11:27:05;;;;;;;;;2.00;2.00;9.30;99.90;;;;;;5055855;28;11478;-48
2021/12/30 11:29:37;;;;;;;;;2.00;2.00;9.30;99.90;;;;;;5052954;28;11460;-50
2021/12/30 11:32:08;;;;;;;;;1.00;1.00;9.30;99.90;;;;;;5053999;28;11637;-44
2021/12/30 11:34:39;;;;;;;;;3.00;1.25;9.30;99.90;;;;;;5056340;28;11515;-45
2021/12/30 11:37:12;;;;;;;;;1.25;1.25;9.30;99.90;;;;;;5054893;28;11543;-49
2021/12/30 11:39:45;;;;;;;;;1.75;1.75;9.20;99.90;;;;;;5053871;28;11502;-48
2021/12/30 11:42:22;;;;;;;;;1.25;1.25;9.20;99.90;;;;;;5054524;28;11566;-46
2021/12/30 11:44:55;;;;;;;;;1.00;1.00;9.20;99.90;;;;;;5053395;28;11449;-44
2021/12/30 11:47:34;;;;;;;;;1.00;1.00;9.20;99.90;;;;;;5055610;28;11486;-48
2021/12/30 11:50:10;;;;;;;;;2.00;2.00;9.20;99.90;;;;;;5051965;28;12226;-49
2021/12/30 11:53:05;;;;;;;;;1.00;1.00;9.20;99.90;;;;;;5043669;28;12179;-49
2021/12/30 11:56:01;;;;;;;;;2.00;2.00;9.20;99.90;;;;;;5053339;28;12277;-51
2021/12/30 11:58:40;;;;;;;;;2.00;2.00;9.20;99.90;;;;;;5062872;28;11542;-44
2021/12/30 12:01:12;;;;;;;;;2.00;2.00;9.20;99.90;;;;;;5059574;28;11505;-44
2021/12/30 12:04:02;;;;;;;;;1.00;1.00;9.20;99.90;;;;;;5059521;28;11480;-45
2021/12/30 12:06:56;;;;;;;;;1.00;1.00;9.20;99.90;;;;;;5056795;28;11469;-46
2021/12/30 12:09:29;;;;;;;;;2.00;2.00;9.20;99.90;;;;;;5059426;28;11541;-47
2021/12/30 12:12:04;;;;;;;;;2.00;2.00;9.10;99.90;;;;;;5040708;28;11462;-45
2021/12/30 12:14:39;;;;;;;;;1.75;1.75;9.10;99.90;;;;;;5058722;28;11488;-45
2021/12/30 12:17:19;;;;;;;;;2.00;2.00;9.10;99.90;;;;;;5061673;28;11461;-46
2021/12/30 12:19:56;;;;;;;;;1.00;1.00;9.10;99.90;;;;;;5059020;28;11478;-45
2021/12/30 12:22:31;;;;;;;;;2.00;2.00;9.10;99.90;;;;;;5056271;28;11471;-46
2021/12/30 12:25:16;;;;;;;;;2.00;2.00;9.00;99.90;;;;;;5041388;28;11526;-50
2021/12/30 12:27:52;;;;;;;;;2.50;2.50;9.00;99.90;;;;;;5058280;28;11479;-49
2021/12/30 12:30:50;;;;;;;;;1.50;1.50;9.00;99.90;;;;;;5058647;28;12275;-48
2021/12/30 12:33:33;;;;;;;;;2.00;2.00;9.00;99.90;;;;;;5040434;28;11477;-49
2021/12/30 12:36:12;;;;;;;;;3.00;3.00;9.00;99.90;;;;;;5057771;28;11501;-47
2021/12/30 12:38:49;;;;;;;;;1.25;1.25;9.00;99.90;;;;;;5058644;28;12244;-45
2021/12/30 12:41:30;;;;;;;;;2.00;2.00;9.00;99.90;;;;;;5055617;28;12171;-51
2021/12/30 12:44:18;;;;;;;;;2.75;2.75;8.90;99.90;;;;;;5061062;28;12227;-50
2021/12/30 12:46:52;;;;;;;;;3.50;3.50;8.90;99.90;;;;;;5054526;28;11475;-47
2021/12/30 12:49:34;;;;;;;;;2.00;2.00;8.90;99.90;;;;;;5045283;28;11536;-48
2021/12/30 12:52:07;;;;;;;;;2.50;2.50;8.90;99.90;;;;;;5037512;28;12498;-47
2021/12/30 12:54:47;;;;;;;;;1.50;1.50;9.00;99.90;;;;;;5037805;28;11691;-48
2021/12/30 12:57:21;;;;;;;;;2.25;2.25;9.00;99.90;;;;;;5033917;28;11488;-50
2021/12/30 12:59:51;;;;;;;;;1.25;1.25;9.00;99.90;;;;;;5034227;28;11480;-49
2021/12/30 13:02:21;;;;;;;;;2.00;2.00;9.00;99.90;;;;;;5038030;28;11475;-48
2021/12/30 13:04:52;;;;;;;;;2.00;2.00;9.00;99.90;;;;;;5036207;28;11499;-48
2021/12/30 13:07:22;;;;;;;;;1.00;1.00;9.00;99.90;;;;;;5037353;28;11459;-47
2021/12/30 13:09:54;;;;;;;;;2.00;2.00;9.00;99.90;;;;;;5037817;28;11494;-47
2021/12/30 13:12:24;;;;;;;;;1.25;1.25;9.00;99.90;;;;;;5038652;28;11512;-46
2021/12/30 13:14:55;;;;;;;;;1.25;1.25;9.10;99.90;;;;;;5036035;28;11526;-45
2021/12/30 13:17:25;;;;;;;;;2.00;2.00;9.10;99.90;;;;;;5037756;28;11482;-43
2021/12/30 13:19:57;;;;;;;;;2.25;2.25;9.10;99.90;;;;;;5031923;28;11488;-45
2021/12/30 13:22:27;;;;;;;;;1.00;1.00;9.10;99.90;;;;;;5035411;28;11528;-50